createdAt,value
2018-12-09T00:03:06.507Z,15.13
2018-12-09T00:08:09.609Z,12.67
2018-12-09T00:13:12.687Z,9.10
2018-12-09T00:18:15.779Z,13.67
2018-12-09T00:23:18.884Z,8.93
2018-12-09T00:28:21.991Z,8.27
2018-12-09T00:33:25.073Z,13.23
2018-12-09T00:38:28.150Z,12.77
2018-12-09T00:43:31.244Z,12.57
2018-12-09T00:48:34.353Z,7.23
2018-12-09T00:53:37.478Z,13.97
2018-12-09T00:58:40.572Z,14.47
2018-12-09T01:03:43.728Z,16.87
2018-12-09T01:08:46.888Z,13.27
2018-12-09T01:13:49.989Z,16.23
2018-12-09T01:18:53.079Z,13.17
2018-12-09T01:23:57.106Z,16.13
2018-12-09T01:29:00.272Z,14.97
2018-12-09T01:34:03.496Z,13.20
2018-12-09T01:39:06.892Z,13.73
2018-12-09T01:44:10.059Z,15.60
2018-12-09T01:49:13.185Z,16.80
2018-12-09T01:54:16.378Z,16.07
2018-12-09T01:59:19.544Z,12.03
2018-12-09T02:04:22.747Z,14.53
2018-12-09T02:09:25.965Z,13.20
2018-12-09T02:14:29.035Z,14.40
2018-12-09T02:19:32.192Z,12.40
2018-12-09T02:24:35.388Z,11.67
2018-12-09T02:29:38.548Z,14.73
2018-12-09T02:40:02.137Z,14.20
2018-12-09T02:45:05.809Z,11.40
2018-12-09T02:50:08.916Z,15.17
2018-12-09T02:55:12.078Z,17.83
2018-12-09T03:00:15.194Z,11.07
2018-12-09T03:05:18.390Z,14.63
2018-12-09T03:10:21.702Z,17.57
2018-12-09T03:15:24.789Z,15.50
2018-12-09T03:20:27.878Z,12.97
2018-12-09T03:25:31.177Z,14.30
2018-12-09T03:30:34.329Z,14.13
2018-12-09T03:35:37.512Z,15.13
2018-12-09T03:40:40.658Z,15.93
2018-12-09T03:45:43.817Z,14.67
2018-12-09T03:50:46.981Z,18.73
2018-12-09T03:55:50.151Z,14.13
2018-12-09T04:00:53.357Z,11.40
2018-12-09T04:05:56.466Z,11.73
2018-12-09T04:10:59.685Z,13.60
2018-12-09T04:16:04.051Z,14.57
2018-12-09T04:21:07.296Z,14.90
2018-12-09T04:26:10.400Z,9.30
2018-12-09T04:31:13.473Z,13.37
2018-12-09T04:36:16.642Z,14.43
2018-12-09T04:41:19.828Z,10.13
2018-12-09T04:46:23.048Z,11.03
2018-12-09T04:51:29.976Z,8.67
2018-12-09T04:56:33.148Z,11.28
2018-12-09T05:01:36.226Z,8.20
2018-12-09T05:06:39.389Z,11.40
2018-12-09T05:11:42.520Z,13.50
2018-12-09T05:16:45.604Z,13.60
2018-12-09T05:21:48.684Z,13.73
2018-12-09T05:26:51.814Z,12.00
2018-12-09T05:31:56.229Z,14.17
2018-12-09T05:36:59.309Z,11.90
2018-12-09T05:42:02.376Z,12.95
2018-12-09T05:47:05.454Z,12.30
2018-12-09T05:52:08.610Z,8.87
2018-12-09T05:57:11.776Z,17.03
2018-12-09T06:07:53.619Z,17.37
2018-12-09T06:12:56.691Z,9.37
2018-12-09T06:17:59.768Z,15.03
2018-12-09T06:23:02.881Z,11.40
2018-12-09T06:28:05.955Z,13.67
2018-12-09T06:33:09.034Z,15.23
2018-12-09T06:38:12.142Z,11.97
2018-12-09T06:43:15.338Z,12.30
2018-12-09T06:48:18.500Z,15.77
2018-12-09T06:53:21.623Z,10.83
2018-12-09T06:58:24.707Z,14.33
2018-12-09T07:03:27.887Z,10.57
2018-12-09T07:08:31.057Z,11.20
2018-12-09T07:13:34.240Z,13.00
2018-12-09T07:18:37.435Z,13.37
2018-12-09T07:23:40.503Z,12.97
2018-12-09T07:28:43.579Z,14.67
2018-12-09T07:33:46.643Z,10.83
2018-12-09T07:38:49.723Z,14.03
2018-12-09T07:43:52.880Z,14.90
2018-12-09T07:48:55.961Z,10.03
2018-12-09T07:53:59.032Z,12.63
2018-12-09T07:59:02.103Z,8.90
2018-12-09T08:04:05.346Z,9.67
2018-12-09T08:09:08.443Z,9.90
2018-12-09T08:14:11.518Z,10.57
2018-12-09T08:19:14.620Z,9.33
2018-12-09T08:24:17.710Z,8.10
2018-12-09T08:29:20.783Z,9.07
2018-12-09T08:34:23.853Z,13.17
2018-12-09T08:39:26.937Z,15.10
2018-12-09T08:44:30.045Z,12.43
2018-12-09T08:49:33.113Z,8.27
2018-12-09T08:54:36.186Z,11.27
2018-12-09T08:59:39.329Z,9.13
2018-12-09T09:04:42.449Z,11.00
2018-12-09T09:09:45.566Z,13.83
2018-12-09T09:14:48.670Z,11.15
2018-12-09T09:19:51.740Z,10.43
2018-12-09T09:24:54.816Z,11.20
2018-12-09T09:29:57.899Z,11.77
2018-12-09T09:35:01.029Z,10.13
2018-12-09T09:40:05.700Z,14.67
2018-12-09T09:45:08.855Z,9.90
2018-12-09T09:50:12.201Z,11.60
2018-12-09T09:55:15.548Z,9.98
2018-12-09T10:00:18.618Z,8.10
2018-12-09T10:05:21.802Z,11.07
2018-12-09T10:10:24.892Z,9.07
2018-12-09T10:15:28.000Z,12.63
2018-12-09T10:20:31.102Z,7.27
2018-12-09T10:25:34.293Z,8.27
2018-12-09T10:30:37.358Z,6.70
2018-12-09T10:35:40.446Z,7.33
2018-12-09T10:40:43.651Z,9.07
2018-12-09T10:45:46.756Z,6.20
2018-12-09T10:50:49.839Z,5.50
2018-12-09T10:55:52.997Z,5.20
2018-12-09T11:00:58.188Z,5.70
2018-12-09T11:06:01.295Z,4.20
2018-12-09T11:11:04.433Z,3.60
2018-12-09T11:16:07.623Z,3.33
2018-12-09T11:21:10.727Z,2.10
2018-12-09T11:26:13.832Z,4.83
2018-12-09T11:31:16.966Z,2.67
2018-12-09T11:36:20.146Z,2.30
2018-12-09T11:41:23.268Z,3.23
2018-12-09T11:46:26.375Z,2.30
2018-12-09T11:51:29.443Z,2.07
2018-12-09T11:56:32.575Z,2.43
2018-12-09T12:01:35.679Z,1.87
2018-12-09T12:06:38.760Z,1.60
2018-12-09T12:11:41.873Z,2.00
2018-12-09T12:16:44.950Z,1.57
2018-12-09T12:21:48.071Z,1.63
2018-12-09T12:26:51.341Z,1.87
2018-12-09T12:31:54.600Z,1.50
2018-12-09T12:36:57.689Z,2.00
2018-12-09T12:42:00.784Z,1.60
2018-12-09T12:47:03.953Z,2.83
2018-12-09T12:52:07.119Z,2.40
2018-12-09T12:57:10.289Z,2.70
2018-12-09T13:02:13.423Z,1.60
2018-12-09T13:07:16.491Z,2.30
2018-12-09T13:12:19.597Z,2.23
2018-12-09T13:17:22.667Z,1.67
2018-12-09T13:22:25.781Z,2.90
2018-12-09T13:27:28.885Z,4.53
2018-12-09T13:32:32.074Z,3.40
2018-12-09T13:37:36.061Z,3.47
2018-12-09T13:42:39.198Z,5.07
2018-12-09T13:47:42.277Z,3.03
2018-12-09T13:52:45.375Z,2.57
2018-12-09T13:57:48.558Z,2.37
2018-12-09T14:02:51.633Z,1.93
2018-12-09T14:07:54.737Z,2.40
2018-12-09T14:12:57.844Z,1.20
2018-12-09T14:18:00.977Z,2.57
2018-12-09T14:23:04.162Z,1.37
2018-12-09T14:28:07.283Z,1.73
2018-12-09T14:33:10.439Z,1.83
2018-12-09T14:38:13.593Z,4.40
2018-12-09T14:43:16.746Z,3.03
2018-12-09T14:48:19.861Z,4.57
2018-12-09T14:53:22.964Z,10.67
2018-12-09T14:58:26.037Z,4.93
2018-12-09T15:03:29.169Z,5.60
2018-12-09T15:08:32.236Z,8.03
2018-12-09T15:13:35.348Z,6.47
2018-12-09T15:18:38.440Z,6.37
2018-12-09T15:23:41.548Z,4.97
2018-12-09T15:28:44.686Z,8.80
2018-12-09T15:33:47.797Z,6.40
2018-12-09T15:38:50.881Z,7.43
2018-12-09T15:43:53.983Z,4.37
2018-12-09T15:48:57.060Z,6.43
2018-12-09T15:54:00.284Z,6.33
2018-12-09T15:59:03.401Z,6.43
2018-12-09T16:04:06.495Z,8.83
2018-12-09T16:09:09.659Z,15.83
2018-12-09T16:14:12.760Z,7.30
2018-12-09T16:19:15.862Z,8.70
2018-12-09T16:24:18.967Z,8.33
2018-12-09T16:29:22.132Z,9.73
2018-12-09T16:34:25.259Z,10.63
2018-12-09T16:39:29.178Z,8.53
2018-12-09T16:44:32.794Z,7.27
2018-12-09T16:54:32.365Z,8.47
2018-12-09T16:59:35.458Z,9.93
2018-12-09T17:04:38.579Z,9.50
2018-12-09T17:09:41.677Z,5.20
2018-12-09T17:14:45.569Z,10.27
2018-12-09T17:19:48.651Z,11.60
2018-12-09T17:24:51.766Z,9.20
2018-12-09T17:29:54.864Z,11.60
2018-12-09T17:34:57.986Z,10.20
2018-12-09T17:40:01.103Z,11.07
2018-12-09T17:45:04.397Z,13.87
2018-12-09T17:50:08.464Z,14.90
2018-12-09T17:55:11.574Z,9.80
2018-12-09T18:00:14.764Z,11.40
2018-12-09T18:05:17.949Z,12.63
2018-12-09T18:10:22.066Z,11.43
2018-12-09T18:15:25.201Z,10.20
2018-12-09T18:20:28.328Z,14.37
2018-12-09T18:25:31.423Z,10.82
2018-12-09T18:30:34.608Z,14.53
2018-12-09T18:35:37.881Z,12.63
2018-12-09T18:40:41.028Z,11.63
2018-12-09T18:45:44.130Z,9.03
2018-12-09T18:50:47.245Z,10.10
2018-12-09T18:55:50.359Z,10.73
2018-12-09T19:00:54.400Z,10.63
2018-12-09T19:05:57.722Z,15.73
2018-12-09T19:11:00.929Z,9.03
2018-12-09T19:16:04.091Z,10.67
2018-12-09T19:21:07.199Z,10.37
2018-12-09T19:26:10.341Z,9.00
2018-12-09T19:31:13.664Z,9.33
2018-12-09T19:36:16.783Z,8.25
2018-12-09T19:41:19.942Z,9.47
2018-12-09T19:46:23.080Z,9.87
2018-12-09T19:51:26.262Z,10.93
2018-12-09T19:56:29.393Z,11.10
2018-12-09T20:01:32.670Z,13.53
2018-12-09T20:06:35.779Z,12.07
2018-12-09T20:11:38.886Z,13.80
2018-12-09T20:16:41.970Z,9.77
2018-12-09T20:21:45.064Z,10.90
2018-12-09T20:26:48.175Z,11.50
2018-12-09T20:31:51.274Z,16.40
2018-12-09T20:36:54.380Z,11.47
2018-12-09T20:41:57.507Z,13.07
2018-12-09T20:47:00.587Z,10.43
2018-12-09T20:52:03.742Z,8.45
2018-12-09T20:57:06.889Z,8.57
2018-12-09T21:02:09.996Z,10.80
2018-12-09T21:07:13.178Z,8.33
2018-12-09T21:12:16.332Z,6.47
2018-12-09T21:17:19.462Z,10.47
2018-12-09T21:22:22.617Z,8.03
2018-12-09T21:27:25.726Z,11.80
2018-12-09T21:32:28.788Z,8.28
2018-12-09T21:37:31.884Z,11.63
2018-12-09T21:42:35.044Z,9.47
2018-12-09T21:47:38.151Z,12.60
2018-12-09T21:52:41.239Z,8.13
2018-12-09T21:57:44.328Z,16.57
2018-12-09T22:02:47.456Z,14.37
2018-12-09T22:07:50.523Z,11.43
2018-12-09T22:12:53.789Z,12.03
2018-12-09T22:17:56.892Z,11.10
2018-12-09T22:22:59.963Z,7.57
2018-12-09T22:28:03.037Z,9.30
2018-12-09T22:33:06.113Z,8.23
2018-12-09T22:38:09.192Z,10.07
2018-12-09T22:43:12.342Z,9.20
2018-12-09T22:48:15.424Z,8.20
2018-12-09T22:53:18.500Z,11.33
2018-12-09T22:58:21.740Z,10.67
2018-12-09T23:03:24.806Z,8.17
2018-12-09T23:08:27.903Z,9.40
2018-12-09T23:13:30.989Z,10.90
2018-12-09T23:18:34.165Z,8.88
2018-12-09T23:23:37.290Z,8.63
2018-12-09T23:28:40.348Z,8.60
2018-12-09T23:33:43.448Z,9.23
2018-12-09T23:38:46.584Z,9.37
2018-12-09T23:43:49.693Z,9.60
2018-12-09T23:48:52.773Z,14.87
2018-12-09T23:53:55.886Z,8.23
2018-12-09T23:58:59.064Z,7.20
